WXM80 ListenWXM80 Stop

You find our weather info also at:

UK Metoffice

WeatherCloud

Weather Underground

Northeastern Weather Network

AWEKAS

Citizen Weather Observer Program (CWOP)

HAMweather, WeatherForYou, PWS Weather


Weather Underground History page Text

Daily Summary for October 16, 2017 Units:  Both    English   Metric
« Previous Day
Next Day »
Daily Weekly Monthly Yearly Custom
  High: Low: Average:
Temperature: 68.7 °F /  20.4 °C 49.5 °F /  9.7 °C 59.5 °F /  15.3 °C
Dew Point: 66.5 °F /  19.2 °C 39.4 °F /  4.1 °C 51.1 °F /  10.6 °C
Humidity: 94 % 65 % 74 %
Wind Speed: 10.7 mph /  17.2 km/h - 4.6 mph /  7.4 km/h
Wind Gust: 18.4 mph /  29.6 km/h - -
Wind:- - SW
Pressure: 30.15 in /  1020.9 hPa 29.75 in /  1007.3 hPa -
Precipitation: 0.00 in /  0 mm    
Historical Graphs
 
 
Tabular Data for October 16, 2017
Time Temperature Dew Point Pressure Wind Wind Speed Wind Gust Humidity Rainfall Rate (Hourly)
00:00 67.9 °F /  19.9 °C 65.8 °F /  18.8 °C 29.76 in /  1007.7 hPa SSW 3.7 mph /  6 km/h 8.0 mph /  12.9 km/h 93 % 0.00 in /  0 mm
00:05 67.9 °F /  19.9 °C 65.8 °F /  18.8 °C 29.77 in /  1008 hPa SSW 2.9 mph /  4.7 km/h 8.1 mph /  13 km/h 93 % 0.00 in /  0 mm
00:10 68.0 °F /  20 °C 65.9 °F /  18.8 °C 29.76 in /  1007.7 hPa SSW 1.1 mph /  1.8 km/h 4.6 mph /  7.4 km/h 93 % 0.00 in /  0 mm
00:15 68.0 °F /  20 °C 65.9 °F /  18.8 °C 29.76 in /  1007.7 hPa South 4.0 mph /  6.4 km/h 6.9 mph /  11.1 km/h 93 % 0.00 in /  0 mm
00:20 68.1 °F /  20.1 °C 66.0 °F /  18.9 °C 29.76 in /  1007.7 hPa SSW 2.1 mph /  3.4 km/h 8.0 mph /  12.9 km/h 93 % 0.00 in /  0 mm
00:25 68.1 °F /  20.1 °C 66.0 °F /  18.9 °C 29.75 in /  1007.3 hPa SSW 0.4 mph /  0.6 km/h 3.5 mph /  5.6 km/h 93 % 0.00 in /  0 mm
00:30 68.1 °F /  20.1 °C 66.3 °F /  19.1 °C 29.76 in /  1007.7 hPa WSW 3.8 mph /  6.1 km/h 5.8 mph /  9.3 km/h 94 % 0.00 in /  0 mm
00:36 68.2 °F /  20.1 °C 66.1 °F /  18.9 °C 29.76 in /  1007.7 hPa WSW 6.0 mph /  9.7 km/h 12.0 mph /  19.3 km/h 93 % 0.00 in /  0 mm
00:41 68.2 °F /  20.1 °C 66.1 °F /  18.9 °C 29.76 in /  1007.7 hPa WSW 2.0 mph /  3.2 km/h 7.0 mph /  11.3 km/h 93 % 0.00 in /  0 mm
00:45 68.3 °F /  20.2 °C 66.2 °F /  19 °C 29.76 in /  1007.7 hPa WSW 0.8 mph /  1.3 km/h 3.5 mph /  5.6 km/h 93 % 0.00 in /  0 mm
00:51 68.3 °F /  20.2 °C 66.2 °F /  19 °C 29.77 in /  1008 hPa WSW 5.0 mph /  8 km/h 12.0 mph /  19.3 km/h 93 % 0.00 in /  0 mm
00:56 68.4 °F /  20.2 °C 66.3 °F /  19.1 °C 29.77 in /  1008 hPa SW 5.0 mph /  8 km/h 12.0 mph /  19.3 km/h 93 % 0.00 in /  0 mm
01:01 68.4 °F /  20.2 °C 66.3 °F /  19.1 °C 29.78 in /  1008.4 hPa WSW 1.6 mph /  2.6 km/h 4.6 mph /  7.4 km/h 93 % 0.00 in /  0 mm
01:06 68.5 °F /  20.3 °C 66.4 °F /  19.1 °C 29.76 in /  1007.7 hPa WSW 1.7 mph /  2.7 km/h 5.8 mph /  9.3 km/h 93 % 0.00 in /  0 mm
01:11 68.5 °F /  20.3 °C 66.4 °F /  19.1 °C 29.77 in /  1008 hPa WSW 0.7 mph /  1.1 km/h 7.0 mph /  11.3 km/h 93 % 0.00 in /  0 mm
01:16 68.5 °F /  20.3 °C 66.4 °F /  19.1 °C 29.76 in /  1007.7 hPa WSW 3.9 mph /  6.3 km/h 10.4 mph /  16.7 km/h 93 % 0.00 in /  0 mm
01:21 68.5 °F /  20.3 °C 66.4 °F /  19.1 °C 29.76 in /  1007.7 hPa SSW 5.0 mph /  8 km/h 9.2 mph /  14.8 km/h 93 % 0.00 in /  0 mm
01:26 68.6 °F /  20.3 °C 66.5 °F /  19.2 °C 29.75 in /  1007.3 hPa WSW 1.1 mph /  1.8 km/h 6.9 mph /  11.1 km/h 93 % 0.00 in /  0 mm
01:31 68.6 °F /  20.3 °C 66.2 °F /  19 °C 29.75 in /  1007.3 hPa SSW 3.2 mph /  5.1 km/h 5.8 mph /  9.3 km/h 92 % 0.00 in /  0 mm
01:36 68.6 °F /  20.3 °C 66.2 °F /  19 °C 29.75 in /  1007.3 hPa SSW 3.4 mph /  5.5 km/h 7.0 mph /  11.3 km/h 92 % 0.00 in /  0 mm
01:41 68.6 °F /  20.3 °C 66.2 °F /  19 °C 29.75 in /  1007.3 hPa WSW 3.4 mph /  5.5 km/h 6.0 mph /  9.7 km/h 92 % 0.00 in /  0 mm
01:46 68.6 °F /  20.3 °C 66.2 °F /  19 °C 29.75 in /  1007.3 hPa WSW 2.9 mph /  4.7 km/h 4.6 mph /  7.4 km/h 92 % 0.00 in /  0 mm
01:51 68.7 °F /  20.4 °C 66.3 °F /  19.1 °C 29.75 in /  1007.3 hPa WSW 4.9 mph /  7.9 km/h 8.0 mph /  12.9 km/h 92 % 0.00 in /  0 mm
01:56 68.6 °F /  20.3 °C 66.2 °F /  19 °C 29.75 in /  1007.3 hPa West 3.1 mph /  5 km/h 5.8 mph /  9.3 km/h 92 % 0.00 in /  0 mm
02:01 68.7 °F /  20.4 °C 66.3 °F /  19.1 °C 29.75 in /  1007.3 hPa SW 0.7 mph /  1.1 km/h 3.5 mph /  5.6 km/h 92 % 0.00 in /  0 mm
02:06 68.7 °F /  20.4 °C 66.3 °F /  19.1 °C 29.77 in /  1008 hPa WNW 3.7 mph /  6 km/h 6.9 mph /  11.1 km/h 92 % 0.00 in /  0 mm
02:11 68.7 °F /  20.4 °C 66.3 °F /  19.1 °C 29.77 in /  1008 hPa WNW 2.0 mph /  3.2 km/h 3.5 mph /  5.6 km/h 92 % 0.00 in /  0 mm
02:16 68.7 °F /  20.4 °C 66.0 °F /  18.9 °C 29.77 in /  1008 hPa NW 4.8 mph /  7.7 km/h 9.2 mph /  14.8 km/h 91 % 0.00 in /  0 mm
02:21 68.6 °F /  20.3 °C 65.5 °F /  18.6 °C 29.77 in /  1008 hPa NE 3.1 mph /  5 km/h 9.2 mph /  14.8 km/h 90 % 0.00 in /  0 mm
02:26 68.5 °F /  20.3 °C 65.4 °F /  18.6 °C 29.78 in /  1008.4 hPa WNW 2.8 mph /  4.5 km/h 5.0 mph /  8 km/h 90 % 0.00 in /  0 mm
02:31 68.4 °F /  20.2 °C 65.0 °F /  18.3 °C 29.79 in /  1008.7 hPa NW 2.5 mph /  4 km/h 8.0 mph /  12.9 km/h 89 % 0.00 in /  0 mm
02:36 68.2 °F /  20.1 °C 64.5 °F /  18.1 °C 29.78 in /  1008.4 hPa ESE 4.9 mph /  7.9 km/h 11.5 mph /  18.5 km/h 88 % 0.00 in /  0 mm
02:41 68.0 °F /  20 °C 64.0 °F /  17.8 °C 29.78 in /  1008.4 hPa WNW 4.9 mph /  7.9 km/h 10.4 mph /  16.7 km/h 87 % 0.00 in /  0 mm
02:46 67.9 °F /  19.9 °C 63.6 °F /  17.6 °C 29.79 in /  1008.7 hPa NNW 4.7 mph /  7.6 km/h 13.8 mph /  22.2 km/h 86 % 0.00 in /  0 mm
02:51 67.7 °F /  19.8 °C 63.4 °F /  17.4 °C 29.79 in /  1008.7 hPa NNW 4.4 mph /  7.1 km/h 8.1 mph /  13 km/h 86 % 0.00 in /  0 mm
02:56 67.7 °F /  19.8 °C 63.4 °F /  17.4 °C 29.78 in /  1008.4 hPa WNW 2.5 mph /  4 km/h 7.0 mph /  11.3 km/h 86 % 0.00 in /  0 mm
03:01 67.5 °F /  19.7 °C 62.8 °F /  17.1 °C 29.76 in /  1007.7 hPa NW 2.3 mph /  3.7 km/h 9.2 mph /  14.8 km/h 85 % 0.00 in /  0 mm
03:06 67.4 °F /  19.7 °C 62.7 °F /  17.1 °C 29.77 in /  1008 hPa West 6.1 mph /  9.8 km/h 8.1 mph /  13 km/h 85 % 0.00 in /  0 mm
03:11 67.4 °F /  19.7 °C 63.1 °F /  17.3 °C 29.77 in /  1008 hPa WSW 3.1 mph /  5 km/h 6.9 mph /  11.1 km/h 86 % 0.00 in /  0 mm
03:16 67.2 °F /  19.6 °C 61.5 °F /  16.4 °C 29.79 in /  1008.7 hPa West 7.0 mph /  11.3 km/h 11.5 mph /  18.5 km/h 82 % 0.00 in /  0 mm
03:21 67.0 °F /  19.4 °C 60.3 °F /  15.7 °C 29.77 in /  1008 hPa NW 10.7 mph /  17.2 km/h 17.3 mph /  27.8 km/h 79 % 0.00 in /  0 mm
03:26 66.9 °F /  19.4 °C 60.2 °F /  15.7 °C 29.79 in /  1008.7 hPa WNW 5.6 mph /  9 km/h 8.1 mph /  13 km/h 79 % 0.00 in /  0 mm
03:31 66.8 °F /  19.3 °C 59.7 °F /  15.4 °C 29.80 in /  1009 hPa NW 5.5 mph /  8.9 km/h 9.2 mph /  14.8 km/h 78 % 0.00 in /  0 mm
03:36 66.8 °F /  19.3 °C 59.7 °F /  15.4 °C 29.79 in /  1008.7 hPa North 6.8 mph /  10.9 km/h 12.0 mph /  19.3 km/h 78 % 0.00 in /  0 mm
03:41 66.7 °F /  19.3 °C 59.6 °F /  15.3 °C 29.79 in /  1008.7 hPa NW 4.5 mph /  7.2 km/h 12.7 mph /  20.4 km/h 78 % 0.00 in /  0 mm
03:46 66.7 °F /  19.3 °C 59.6 °F /  15.3 °C 29.80 in /  1009 hPa NW 5.8 mph /  9.3 km/h 10.4 mph /  16.7 km/h 78 % 0.00 in /  0 mm
03:51 66.6 °F /  19.2 °C 59.9 °F /  15.5 °C 29.80 in /  1009 hPa NW 3.1 mph /  5 km/h 8.1 mph /  13 km/h 79 % 0.00 in /  0 mm
03:56 66.5 °F /  19.2 °C 59.4 °F /  15.2 °C 29.80 in /  1009 hPa WNW 5.6 mph /  9 km/h 6.9 mph /  11.1 km/h 78 % 0.00 in /  0 mm
04:01 66.4 °F /  19.1 °C 59.7 °F /  15.4 °C 29.79 in /  1008.7 hPa WNW 4.7 mph /  7.6 km/h 12.0 mph /  19.3 km/h 79 % 0.00 in /  0 mm
04:06 66.2 °F /  19 °C 59.5 °F /  15.3 °C 29.79 in /  1008.7 hPa NNW 4.9 mph /  7.9 km/h 11.5 mph /  18.5 km/h 79 % 0.00 in /  0 mm
04:11 66.1 °F /  18.9 °C 59.0 °F /  15 °C 29.80 in /  1009 hPa NNW 8.6 mph /  13.8 km/h 15.0 mph /  24.1 km/h 78 % 0.00 in /  0 mm
04:16 65.9 °F /  18.8 °C 58.5 °F /  14.7 °C 29.79 in /  1008.7 hPa West 4.5 mph /  7.2 km/h 8.1 mph /  13 km/h 77 % 0.00 in /  0 mm
04:21 65.8 °F /  18.8 °C 58.7 °F /  14.8 °C 29.80 in /  1009 hPa West 8.2 mph /  13.2 km/h 12.0 mph /  19.3 km/h 78 % 0.00 in /  0 mm
04:26 65.5 °F /  18.6 °C 58.5 °F /  14.7 °C 29.79 in /  1008.7 hPa WNW 8.6 mph /  13.8 km/h 15.0 mph /  24.1 km/h 78 % 0.00 in /  0 mm
04:31 65.3 °F /  18.5 °C 59.0 °F /  15 °C 29.79 in /  1008.7 hPa NW 5.6 mph /  9 km/h 12.0 mph /  19.3 km/h 80 % 0.00 in /  0 mm
04:36 65.0 °F /  18.3 °C 59.0 °F /  15 °C 29.79 in /  1008.7 hPa WSW 6.7 mph /  10.8 km/h 10.4 mph /  16.7 km/h 81 % 0.00 in /  0 mm
04:41 64.7 °F /  18.2 °C 59.1 °F /  15.1 °C 29.79 in /  1008.7 hPa WNW 4.9 mph /  7.9 km/h 9.2 mph /  14.8 km/h 82 % 0.00 in /  0 mm
04:46 64.5 °F /  18.1 °C 58.9 °F /  14.9 °C 29.79 in /  1008.7 hPa West 6.0 mph /  9.7 km/h 15.0 mph /  24.1 km/h 82 % 0.00 in /  0 mm
04:51 64.3 °F /  17.9 °C 59.0 °F /  15 °C 29.79 in /  1008.7 hPa WNW 2.5 mph /  4 km/h 5.0 mph /  8 km/h 83 % 0.00 in /  0 mm
04:56 64.2 °F /  17.9 °C 58.9 °F /  14.9 °C 29.80 in /  1009 hPa NW 3.3 mph /  5.3 km/h 6.9 mph /  11.1 km/h 83 % 0.00 in /  0 mm
05:01 64.1 °F /  17.8 °C 59.2 °F /  15.1 °C 29.80 in /  1009 hPa WNW 3.8 mph /  6.1 km/h 6.9 mph /  11.1 km/h 84 % 0.00 in /  0 mm
05:06 63.9 °F /  17.7 °C 59.3 °F /  15.2 °C 29.80 in /  1009 hPa WNW 3.0 mph /  4.8 km/h 4.6 mph /  7.4 km/h 85 % 0.00 in /  0 mm
05:11 63.8 °F /  17.7 °C 59.2 °F /  15.1 °C 29.81 in /  1009.4 hPa NW 6.8 mph /  10.9 km/h 7.0 mph /  11.3 km/h 85 % 0.00 in /  0 mm
05:16 63.6 °F /  17.6 °C 58.7 °F /  14.8 °C 29.81 in /  1009.4 hPa SW 3.6 mph /  5.8 km/h 6.9 mph /  11.1 km/h 84 % 0.00 in /  0 mm
05:21 63.5 °F /  17.5 °C 58.2 °F /  14.6 °C 29.82 in /  1009.7 hPa WNW 4.5 mph /  7.2 km/h 7.0 mph /  11.3 km/h 83 % 0.00 in /  0 mm
05:27 63.4 °F /  17.4 °C 58.1 °F /  14.5 °C 29.81 in /  1009.4 hPa SW 1.5 mph /  2.4 km/h 8.1 mph /  13 km/h 83 % 0.00 in /  0 mm
05:32 63.4 °F /  17.4 °C 58.5 °F /  14.7 °C 29.82 in /  1009.7 hPa NNW 3.2 mph /  5.1 km/h 4.0 mph /  6.4 km/h 84 % 0.00 in /  0 mm
05:37 63.3 °F /  17.4 °C 58.4 °F /  14.7 °C 29.81 in /  1009.4 hPa WNW 5.3 mph /  8.5 km/h 10.4 mph /  16.7 km/h 84 % 0.00 in /  0 mm
05:42 63.2 °F /  17.3 °C 57.9 °F /  14.4 °C 29.81 in /  1009.4 hPa NNW 3.9 mph /  6.3 km/h 11.5 mph /  18.5 km/h 83 % 0.00 in /  0 mm
05:47 63.2 °F /  17.3 °C 57.9 °F /  14.4 °C 29.81 in /  1009.4 hPa WNW 3.6 mph /  5.8 km/h 6.0 mph /  9.7 km/h 83 % 0.00 in /  0 mm
05:52 63.2 °F /  17.3 °C 57.9 °F /  14.4 °C 29.81 in /  1009.4 hPa WNW 2.2 mph /  3.5 km/h 4.6 mph /  7.4 km/h 83 % 0.00 in /  0 mm
05:57 63.2 °F /  17.3 °C 57.9 °F /  14.4 °C 29.81 in /  1009.4 hPa West 1.5 mph /  2.4 km/h 9.2 mph /  14.8 km/h 83 % 0.00 in /  0 mm
06:02 63.2 °F /  17.3 °C 57.6 °F /  14.2 °C 29.82 in /  1009.7 hPa NNW 3.8 mph /  6.1 km/h 9.2 mph /  14.8 km/h 82 % 0.00 in /  0 mm
06:07 63.1 °F /  17.3 °C 57.5 °F /  14.2 °C 29.83 in /  1010 hPa North 3.2 mph /  5.1 km/h 6.9 mph /  11.1 km/h 82 % 0.00 in /  0 mm
06:12 63.1 °F /  17.3 °C 57.5 °F /  14.2 °C 29.82 in /  1009.7 hPa WNW 2.6 mph /  4.2 km/h 7.0 mph /  11.3 km/h 82 % 0.00 in /  0 mm
06:17 63.1 °F /  17.3 °C 57.2 °F /  14 °C 29.83 in /  1010 hPa NW 2.8 mph /  4.5 km/h 9.2 mph /  14.8 km/h 81 % 0.00 in /  0 mm
06:22 63.0 °F /  17.2 °C 56.7 °F /  13.7 °C 29.83 in /  1010 hPa NNE 3.0 mph /  4.8 km/h 5.8 mph /  9.3 km/h 80 % 0.00 in /  0 mm
06:27 62.9 °F /  17.2 °C 56.6 °F /  13.7 °C 29.84 in /  1010.4 hPa West 6.5 mph /  10.5 km/h 11.5 mph /  18.5 km/h 80 % 0.00 in /  0 mm
06:32 62.9 °F /  17.2 °C 55.9 °F /  13.3 °C 29.84 in /  1010.4 hPa WNW 2.3 mph /  3.7 km/h 5.8 mph /  9.3 km/h 78 % 0.00 in /  0 mm
06:37 62.8 °F /  17.1 °C 55.5 °F /  13.1 °C 29.84 in /  1010.4 hPa NNW 5.0 mph /  8 km/h 10.4 mph /  16.7 km/h 77 % 0.00 in /  0 mm
06:42 62.7 °F /  17.1 °C 55.7 °F /  13.2 °C 29.84 in /  1010.4 hPa WSW 8.1 mph /  13 km/h 16.0 mph /  25.7 km/h 78 % 0.00 in /  0 mm
06:47 62.7 °F /  17.1 °C 55.7 °F /  13.2 °C 29.84 in /  1010.4 hPa NW 0.5 mph /  0.8 km/h 10.4 mph /  16.7 km/h 78 % 0.00 in /  0 mm
06:52 62.6 °F /  17 °C 55.6 °F /  13.1 °C 29.85 in /  1010.7 hPa NW 1.8 mph /  2.9 km/h 6.0 mph /  9.7 km/h 78 % 0.00 in /  0 mm
06:57 62.6 °F /  17 °C 56.0 °F /  13.3 °C 29.84 in /  1010.4 hPa NW 3.0 mph /  4.8 km/h 10.4 mph /  16.7 km/h 79 % 0.00 in /  0 mm
07:02 62.5 °F /  16.9 °C 55.9 °F /  13.3 °C 29.84 in /  1010.4 hPa WNW 4.4 mph /  7.1 km/h 8.0 mph /  12.9 km/h 79 % 0.00 in /  0 mm
07:08 62.5 °F /  16.9 °C 55.5 °F /  13.1 °C 29.85 in /  1010.7 hPa West 5.5 mph /  8.9 km/h 9.2 mph /  14.8 km/h 78 % 0.00 in /  0 mm
07:13 62.4 °F /  16.9 °C 55.4 °F /  13 °C 29.86 in /  1011.1 hPa NNW 2.2 mph /  3.5 km/h 5.8 mph /  9.3 km/h 78 % 0.00 in /  0 mm
07:18 62.3 °F /  16.8 °C 55.4 °F /  13 °C 29.85 in /  1010.7 hPa WNW 0.7 mph /  1.1 km/h 2.3 mph /  3.7 km/h 78 % 0.00 in /  0 mm
07:23 62.2 °F /  16.8 °C 55.3 °F /  12.9 °C 29.86 in /  1011.1 hPa NW 3.4 mph /  5.5 km/h 11.5 mph /  18.5 km/h 78 % 0.00 in /  0 mm
07:28 62.1 °F /  16.7 °C 54.4 °F /  12.4 °C 29.86 in /  1011.1 hPa WNW 2.3 mph /  3.7 km/h 12.7 mph /  20.4 km/h 76 % 0.00 in /  0 mm
07:33 62.0 °F /  16.7 °C 54.3 °F /  12.4 °C 29.86 in /  1011.1 hPa North 3.3 mph /  5.3 km/h 9.2 mph /  14.8 km/h 76 % 0.00 in /  0 mm
07:38 61.9 °F /  16.6 °C 54.2 °F /  12.3 °C 29.87 in /  1011.4 hPa NW 4.6 mph /  7.4 km/h 12.7 mph /  20.4 km/h 76 % 0.00 in /  0 mm
07:43 61.8 °F /  16.6 °C 53.8 °F /  12.1 °C 29.88 in /  1011.7 hPa WNW 6.5 mph /  10.5 km/h 18.4 mph /  29.6 km/h 75 % 0.00 in /  0 mm
07:48 61.7 °F /  16.5 °C 54.1 °F /  12.3 °C 29.87 in /  1011.4 hPa West 5.3 mph /  8.5 km/h 9.2 mph /  14.8 km/h 76 % 0.00 in /  0 mm
07:53 61.6 °F /  16.4 °C 53.6 °F /  12 °C 29.88 in /  1011.7 hPa NW 7.1 mph /  11.4 km/h 13.8 mph /  22.2 km/h 75 % 0.00 in /  0 mm
07:58 61.6 °F /  16.4 °C 53.6 °F /  12 °C 29.88 in /  1011.7 hPa WNW 4.6 mph /  7.4 km/h 9.2 mph /  14.8 km/h 75 % 0.00 in /  0 mm
08:03 61.4 °F /  16.3 °C 53.0 °F /  11.7 °C 29.88 in /  1011.7 hPa North 6.2 mph /  10 km/h 11.5 mph /  18.5 km/h 74 % 0.00 in /  0 mm
08:08 61.3 °F /  16.3 °C 52.2 °F /  11.2 °C 29.88 in /  1011.7 hPa NNW 5.7 mph /  9.2 km/h 13.8 mph /  22.2 km/h 72 % 0.00 in /  0 mm
08:13 61.2 °F /  16.2 °C 51.7 °F /  10.9 °C 29.89 in /  1012.1 hPa WNW 7.2 mph /  11.6 km/h 13.0 mph /  20.9 km/h 71 % 0.00 in /  0 mm
08:18 61.1 °F /  16.2 °C 52.0 °F /  11.1 °C 29.89 in /  1012.1 hPa WNW 6.2 mph /  10 km/h 12.7 mph /  20.4 km/h 72 % 0.00 in /  0 mm
08:23 60.9 °F /  16.1 °C 51.0 °F /  10.6 °C 29.89 in /  1012.1 hPa NNW 6.7 mph /  10.8 km/h 13.0 mph /  20.9 km/h 70 % 0.00 in /  0 mm
08:28 60.7 °F /  15.9 °C 50.5 °F /  10.3 °C 29.90 in /  1012.4 hPa West 4.2 mph /  6.8 km/h 13.8 mph /  22.2 km/h 69 % 0.00 in /  0 mm
08:34 60.6 °F /  15.9 °C 50.0 °F /  10 °C 29.90 in /  1012.4 hPa WNW 4.9 mph /  7.9 km/h 10.4 mph /  16.7 km/h 68 % 0.00 in /  0 mm
08:39 60.4 °F /  15.8 °C 49.8 °F /  9.9 °C 29.90 in /  1012.4 hPa SW 4.6 mph /  7.4 km/h 8.1 mph /  13 km/h 68 % 0.00 in /  0 mm
08:44 60.3 °F /  15.7 °C 49.7 °F /  9.8 °C 29.90 in /  1012.4 hPa West 2.0 mph /  3.2 km/h 9.2 mph /  14.8 km/h 68 % 0.00 in /  0 mm
08:49 60.3 °F /  15.7 °C 50.5 °F /  10.3 °C 29.90 in /  1012.4 hPa NW 5.7 mph /  9.2 km/h 9.2 mph /  14.8 km/h 70 % 0.00 in /  0 mm
08:54 60.2 °F /  15.7 °C 50.8 °F /  10.4 °C 29.91 in /  1012.8 hPa NNE 1.2 mph /  1.9 km/h 9.2 mph /  14.8 km/h 71 % 0.00 in /  0 mm
08:59 60.2 °F /  15.7 °C 51.1 °F /  10.6 °C 29.90 in /  1012.4 hPa WNW 4.3 mph /  6.9 km/h 5.8 mph /  9.3 km/h 72 % 0.00 in /  0 mm
09:04 60.1 °F /  15.6 °C 50.3 °F /  10.2 °C 29.91 in /  1012.8 hPa NNW 3.8 mph /  6.1 km/h 10.4 mph /  16.7 km/h 70 % 0.00 in /  0 mm
09:09 60.0 °F /  15.6 °C 49.8 °F /  9.9 °C 29.90 in /  1012.4 hPa West 1.5 mph /  2.4 km/h 4.6 mph /  7.4 km/h 69 % 0.00 in /  0 mm
09:14 59.9 °F /  15.5 °C 49.3 °F /  9.6 °C 29.91 in /  1012.8 hPa WNW 5.9 mph /  9.5 km/h 11.5 mph /  18.5 km/h 68 % 0.00 in /  0 mm
09:19 59.9 °F /  15.5 °C 50.1 °F /  10.1 °C 29.92 in /  1013.1 hPa NNW 3.3 mph /  5.3 km/h 5.8 mph /  9.3 km/h 70 % 0.00 in /  0 mm
09:24 59.9 °F /  15.5 °C 50.5 °F /  10.3 °C 29.92 in /  1013.1 hPa NNE 1.8 mph /  2.9 km/h 5.8 mph /  9.3 km/h 71 % 0.00 in /  0 mm
09:29 59.9 °F /  15.5 °C 50.8 °F /  10.4 °C 29.91 in /  1012.8 hPa NNE 2.1 mph /  3.4 km/h 8.1 mph /  13 km/h 72 % 0.00 in /  0 mm
09:34 59.8 °F /  15.4 °C 50.8 °F /  10.4 °C 29.91 in /  1012.8 hPa WNW 5.6 mph /  9 km/h 8.1 mph /  13 km/h 72 % 0.00 in /  0 mm
09:39 59.8 °F /  15.4 °C 50.4 °F /  10.2 °C 29.93 in /  1013.4 hPa WNW 6.5 mph /  10.5 km/h 10.0 mph /  16.1 km/h 71 % 0.00 in /  0 mm
09:44 59.7 °F /  15.4 °C 49.9 °F /  9.9 °C 29.94 in /  1013.8 hPa WSW 5.7 mph /  9.2 km/h 10.4 mph /  16.7 km/h 70 % 0.00 in /  0 mm
09:49 59.6 °F /  15.3 °C 49.4 °F /  9.7 °C 29.93 in /  1013.4 hPa WNW 1.8 mph /  2.9 km/h 13.8 mph /  22.2 km/h 69 % 0.00 in /  0 mm
09:54 59.5 °F /  15.3 °C 49.3 °F /  9.6 °C 29.92 in /  1013.1 hPa West 3.9 mph /  6.3 km/h 8.1 mph /  13 km/h 69 % 0.00 in /  0 mm
09:59 59.3 °F /  15.2 °C 49.5 °F /  9.7 °C 29.92 in /  1013.1 hPa WNW 3.8 mph /  6.1 km/h 4.6 mph /  7.4 km/h 70 % 0.00 in /  0 mm
10:05 59.1 °F /  15.1 °C 49.7 °F /  9.8 °C 29.93 in /  1013.4 hPa NNW 2.8 mph /  4.5 km/h 6.9 mph /  11.1 km/h 71 % 0.00 in /  0 mm
10:10 59.0 °F /  15 °C 49.6 °F /  9.8 °C 29.93 in /  1013.4 hPa NNW 2.5 mph /  4 km/h 5.8 mph /  9.3 km/h 71 % 0.00 in /  0 mm
10:15 58.9 °F /  14.9 °C 49.1 °F /  9.5 °C 29.92 in /  1013.1 hPa NW 5.1 mph /  8.2 km/h 8.1 mph /  13 km/h 70 % 0.00 in /  0 mm
10:20 58.8 °F /  14.9 °C 49.0 °F /  9.4 °C 29.94 in /  1013.8 hPa NW 2.7 mph /  4.3 km/h 6.9 mph /  11.1 km/h 70 % 0.00 in /  0 mm
10:25 58.8 °F /  14.9 °C 49.4 °F /  9.7 °C 29.93 in /  1013.4 hPa NNW 3.3 mph /  5.3 km/h 4.6 mph /  7.4 km/h 71 % 0.00 in /  0 mm
10:30 58.9 °F /  14.9 °C 49.9 °F /  9.9 °C 29.93 in /  1013.4 hPa SW 4.2 mph /  6.8 km/h 9.2 mph /  14.8 km/h 72 % 0.00 in /  0 mm
10:35 59.1 °F /  15.1 °C 50.1 °F /  10.1 °C 29.93 in /  1013.4 hPa NNE 2.4 mph /  3.9 km/h 8.1 mph /  13 km/h 72 % 0.00 in /  0 mm
10:40 59.2 °F /  15.1 °C 49.8 °F /  9.9 °C 29.95 in /  1014.1 hPa NE 2.8 mph /  4.5 km/h 5.8 mph /  9.3 km/h 71 % 0.00 in /  0 mm
10:45 59.2 °F /  15.1 °C 49.4 °F /  9.7 °C 29.94 in /  1013.8 hPa WNW 2.9 mph /  4.7 km/h 5.8 mph /  9.3 km/h 70 % 0.00 in /  0 mm
10:50 59.2 °F /  15.1 °C 49.4 °F /  9.7 °C 29.95 in /  1014.1 hPa West 3.4 mph /  5.5 km/h 9.2 mph /  14.8 km/h 70 % 0.00 in /  0 mm
10:55 59.2 °F /  15.1 °C 49.8 °F /  9.9 °C 29.95 in /  1014.1 hPa NW 2.3 mph /  3.7 km/h 5.0 mph /  8 km/h 71 % 0.00 in /  0 mm
11:00 59.1 °F /  15.1 °C 50.1 °F /  10.1 °C 29.93 in /  1013.4 hPa NNE 3.4 mph /  5.5 km/h 6.9 mph /  11.1 km/h 72 % 0.00 in /  0 mm
11:05 59.2 °F /  15.1 °C 50.2 °F /  10.1 °C 29.95 in /  1014.1 hPa WNW 2.8 mph /  4.5 km/h 5.8 mph /  9.3 km/h 72 % 0.00 in /  0 mm
11:10 59.4 °F /  15.2 °C 50.4 °F /  10.2 °C 29.94 in /  1013.8 hPa NW 6.1 mph /  9.8 km/h 9.2 mph /  14.8 km/h 72 % 0.00 in /  0 mm
11:15 59.6 °F /  15.3 °C 51.3 °F /  10.7 °C 29.94 in /  1013.8 hPa NW 0.1 mph /  0.2 km/h 1.2 mph /  1.9 km/h 74 % 0.00 in /  0 mm
11:20 59.7 °F /  15.4 °C 50.7 °F /  10.4 °C 29.94 in /  1013.8 hPa NW 3.5 mph /  5.6 km/h 5.8 mph /  9.3 km/h 72 % 0.00 in /  0 mm
11:25 59.9 °F /  15.5 °C 50.8 °F /  10.4 °C 29.93 in /  1013.4 hPa NNE 5.2 mph /  8.4 km/h 9.2 mph /  14.8 km/h 72 % 0.00 in /  0 mm
11:30 60.2 °F /  15.7 °C 51.1 °F /  10.6 °C 29.93 in /  1013.4 hPa NNE 5.4 mph /  8.7 km/h 11.5 mph /  18.5 km/h 72 % 0.00 in /  0 mm
11:35 60.4 °F /  15.8 °C 50.6 °F /  10.3 °C 29.94 in /  1013.8 hPa NNE 2.2 mph /  3.5 km/h 12.0 mph /  19.3 km/h 70 % 0.00 in /  0 mm
11:40 60.4 °F /  15.8 °C 50.6 °F /  10.3 °C 29.95 in /  1014.1 hPa West 1.8 mph /  2.9 km/h 7.0 mph /  11.3 km/h 70 % 0.00 in /  0 mm
11:45 60.4 °F /  15.8 °C 50.2 °F /  10.1 °C 29.95 in /  1014.1 hPa NNW 2.7 mph /  4.3 km/h 5.8 mph /  9.3 km/h 69 % 0.00 in /  0 mm
11:50 60.2 °F /  15.7 °C 50.8 °F /  10.4 °C 29.95 in /  1014.1 hPa North 3.2 mph /  5.1 km/h 5.0 mph /  8 km/h 71 % 0.00 in /  0 mm
11:55 60.1 °F /  15.6 °C 50.3 °F /  10.2 °C 29.95 in /  1014.1 hPa North 2.4 mph /  3.9 km/h 4.6 mph /  7.4 km/h 70 % 0.00 in /  0 mm
12:00 60.0 °F /  15.6 °C 50.6 °F /  10.3 °C 29.95 in /  1014.1 hPa North 2.7 mph /  4.3 km/h 9.2 mph /  14.8 km/h 71 % 0.00 in /  0 mm
12:05 60.0 °F /  15.6 °C 49.8 °F /  9.9 °C 29.96 in /  1014.4 hPa North 2.4 mph /  3.9 km/h 5.8 mph /  9.3 km/h 69 % 0.00 in /  0 mm
12:10 59.9 °F /  15.5 °C 50.1 °F /  10.1 °C 29.97 in /  1014.8 hPa North 2.7 mph /  4.3 km/h 6.9 mph /  11.1 km/h 70 % 0.00 in /  0 mm
12:15 59.9 °F /  15.5 °C 50.1 °F /  10.1 °C 29.97 in /  1014.8 hPa WNW 3.0 mph /  4.8 km/h 8.1 mph /  13 km/h 70 % 0.00 in /  0 mm
12:20 59.8 °F /  15.4 °C 50.0 °F /  10 °C 29.96 in /  1014.4 hPa North 1.8 mph /  2.9 km/h 7.0 mph /  11.3 km/h 70 % 0.00 in /  0 mm
12:25 59.8 °F /  15.4 °C 50.0 °F /  10 °C 29.94 in /  1013.8 hPa NE 3.5 mph /  5.6 km/h 5.0 mph /  8 km/h 70 % 0.00 in /  0 mm
12:26 59.7 °F /  15.4 °C 49.9 °F /  9.9 °C 29.94 in /  1013.8 hPa NE 4.1 mph /  6.6 km/h 6.0 mph /  9.7 km/h 70 % 0.00 in /  0 mm
12:31 59.6 °F /  15.3 °C 49.4 °F /  9.7 °C 29.94 in /  1013.8 hPa NNE 3.8 mph /  6.1 km/h 9.2 mph /  14.8 km/h 69 % 0.00 in /  0 mm
12:36 59.4 °F /  15.2 °C 49.2 °F /  9.6 °C 29.95 in /  1014.1 hPa NNE 4.9 mph /  7.9 km/h 7.0 mph /  11.3 km/h 69 % 0.00 in /  0 mm
12:41 59.4 °F /  15.2 °C 49.6 °F /  9.8 °C 29.95 in /  1014.1 hPa WNW 4.8 mph /  7.7 km/h 10.4 mph /  16.7 km/h 70 % 0.00 in /  0 mm
12:46 59.3 °F /  15.2 °C 49.5 °F /  9.7 °C 29.95 in /  1014.1 hPa WNW 2.1 mph /  3.4 km/h 4.6 mph /  7.4 km/h 70 % 0.00 in /  0 mm
12:51 59.3 °F /  15.2 °C 49.5 °F /  9.7 °C 29.96 in /  1014.4 hPa NNE 3.3 mph /  5.3 km/h 9.2 mph /  14.8 km/h 70 % 0.00 in /  0 mm
12:52 59.4 °F /  15.2 °C 50.0 °F /  10 °C 29.96 in /  1014.4 hPa NNW 4.3 mph /  6.9 km/h 4.6 mph /  7.4 km/h 71 % 0.00 in /  0 mm
12:57 59.6 °F /  15.3 °C 49.4 °F /  9.7 °C 29.94 in /  1013.8 hPa NNE 5.1 mph /  8.2 km/h 10.4 mph /  16.7 km/h 69 % 0.00 in /  0 mm
13:03 59.9 °F /  15.5 °C 50.1 °F /  10.1 °C 29.95 in /  1014.1 hPa North 2.3 mph /  3.7 km/h 8.1 mph /  13 km/h 70 % 0.00 in /  0 mm
13:08 59.9 °F /  15.5 °C 49.3 °F /  9.6 °C 29.94 in /  1013.8 hPa North 2.8 mph /  4.5 km/h 6.0 mph /  9.7 km/h 68 % 0.00 in /  0 mm
13:13 59.9 °F /  15.5 °C 49.3 °F /  9.6 °C 29.94 in /  1013.8 hPa NNW 1.5 mph /  2.4 km/h 10.4 mph /  16.7 km/h 68 % 0.00 in /  0 mm
13:18 59.8 °F /  15.4 °C 49.2 °F /  9.6 °C 29.93 in /  1013.4 hPa NNW 6.0 mph /  9.7 km/h 8.1 mph /  13 km/h 68 % 0.00 in /  0 mm
13:23 59.7 °F /  15.4 °C 49.1 °F /  9.5 °C 29.93 in /  1013.4 hPa North 2.7 mph /  4.3 km/h 11.5 mph /  18.5 km/h 68 % 0.00 in /  0 mm
13:28 59.5 °F /  15.3 °C 48.5 °F /  9.2 °C 29.93 in /  1013.4 hPa North 5.4 mph /  8.7 km/h 11.5 mph /  18.5 km/h 67 % 0.00 in /  0 mm
13:33 59.3 °F /  15.2 °C 48.3 °F /  9.1 °C 29.93 in /  1013.4 hPa North 4.2 mph /  6.8 km/h 9.2 mph /  14.8 km/h 67 % 0.00 in /  0 mm
13:38 59.1 °F /  15.1 °C 49.3 °F /  9.6 °C 29.94 in /  1013.8 hPa West 3.7 mph /  6 km/h 11.5 mph /  18.5 km/h 70 % 0.00 in /  0 mm
13:43 58.9 °F /  14.9 °C 48.7 °F /  9.3 °C 29.94 in /  1013.8 hPa NNE 4.4 mph /  7.1 km/h 8.1 mph /  13 km/h 69 % 0.00 in /  0 mm
13:48 58.7 °F /  14.8 °C 48.6 °F /  9.2 °C 29.95 in /  1014.1 hPa North 4.2 mph /  6.8 km/h 8.1 mph /  13 km/h 69 % 0.00 in /  0 mm
13:53 58.6 °F /  14.8 °C 47.7 °F /  8.7 °C 29.95 in /  1014.1 hPa NNW 8.1 mph /  13 km/h 11.5 mph /  18.5 km/h 67 % 0.00 in /  0 mm
13:54 58.6 °F /  14.8 °C 47.7 °F /  8.7 °C 29.95 in /  1014.1 hPa North 3.6 mph /  5.8 km/h 11.5 mph /  18.5 km/h 67 % 0.00 in /  0 mm
13:59 58.5 °F /  14.7 °C 48.0 °F /  8.9 °C 29.94 in /  1013.8 hPa NNE 2.0 mph /  3.2 km/h 5.8 mph /  9.3 km/h 68 % 0.00 in /  0 mm
14:04 58.5 °F /  14.7 °C 48.4 °F /  9.1 °C 29.95 in /  1014.1 hPa NNW 3.3 mph /  5.3 km/h 8.0 mph /  12.9 km/h 69 % 0.00 in /  0 mm
14:09 58.4 °F /  14.7 °C 48.3 °F /  9.1 °C 29.94 in /  1013.8 hPa North 6.0 mph /  9.7 km/h 11.0 mph /  17.7 km/h 69 % 0.00 in /  0 mm
14:14 58.3 °F /  14.6 °C 47.4 °F /  8.6 °C 29.95 in /  1014.1 hPa NE 4.2 mph /  6.8 km/h 6.9 mph /  11.1 km/h 67 % 0.00 in /  0 mm
14:19 58.2 °F /  14.6 °C 47.3 °F /  8.5 °C 29.95 in /  1014.1 hPa NNW 5.0 mph /  8 km/h 8.1 mph /  13 km/h 67 % 0.00 in /  0 mm
14:24 58.2 °F /  14.6 °C 47.3 °F /  8.5 °C 29.96 in /  1014.4 hPa North 2.0 mph /  3.2 km/h 8.1 mph /  13 km/h 67 % 0.00 in /  0 mm
14:29 58.2 °F /  14.6 °C 47.3 °F /  8.5 °C 29.96 in /  1014.4 hPa NNE 1.7 mph /  2.7 km/h 5.0 mph /  8 km/h 67 % 0.00 in /  0 mm
14:34 58.1 °F /  14.5 °C 47.6 °F /  8.7 °C 29.96 in /  1014.4 hPa North 4.6 mph /  7.4 km/h 10.4 mph /  16.7 km/h 68 % 0.00 in /  0 mm
14:39 57.9 °F /  14.4 °C 47.4 °F /  8.6 °C 29.95 in /  1014.1 hPa NNE 5.5 mph /  8.9 km/h 12.7 mph /  20.4 km/h 68 % 0.00 in /  0 mm
14:44 57.8 °F /  14.3 °C 48.1 °F /  8.9 °C 29.96 in /  1014.4 hPa NNW 3.6 mph /  5.8 km/h 13.8 mph /  22.2 km/h 70 % 0.00 in /  0 mm
14:49 57.8 °F /  14.3 °C 48.1 °F /  8.9 °C 29.96 in /  1014.4 hPa North 4.2 mph /  6.8 km/h 11.5 mph /  18.5 km/h 70 % 0.00 in /  0 mm
14:55 58.1 °F /  14.5 °C 48.0 °F /  8.9 °C 29.96 in /  1014.4 hPa North 6.7 mph /  10.8 km/h 11.5 mph /  18.5 km/h 69 % 0.00 in /  0 mm
15:00 58.3 °F /  14.6 °C 47.8 °F /  8.8 °C 29.96 in /  1014.4 hPa NNE 5.1 mph /  8.2 km/h 11.5 mph /  18.5 km/h 68 % 0.00 in /  0 mm
15:05 58.4 °F /  14.7 °C 47.9 °F /  8.8 °C 29.96 in /  1014.4 hPa North 5.8 mph /  9.3 km/h 9.2 mph /  14.8 km/h 68 % 0.00 in /  0 mm
15:10 58.5 °F /  14.7 °C 47.6 °F /  8.7 °C 29.96 in /  1014.4 hPa North 4.1 mph /  6.6 km/h 10.0 mph /  16.1 km/h 67 % 0.00 in /  0 mm
15:15 58.6 °F /  14.8 °C 47.7 °F /  8.7 °C 29.97 in /  1014.8 hPa NNE 3.5 mph /  5.6 km/h 11.5 mph /  18.5 km/h 67 % 0.00 in /  0 mm
15:20 58.6 °F /  14.8 °C 47.3 °F /  8.5 °C 29.98 in /  1015.1 hPa NNW 2.3 mph /  3.7 km/h 8.1 mph /  13 km/h 66 % 0.00 in /  0 mm
15:25 58.7 °F /  14.8 °C 47.8 °F /  8.8 °C 29.98 in /  1015.1 hPa North 4.1 mph /  6.6 km/h 10.0 mph /  16.1 km/h 67 % 0.00 in /  0 mm
15:30 58.7 °F /  14.8 °C 47.0 °F /  8.3 °C 29.97 in /  1014.8 hPa NW 5.3 mph /  8.5 km/h 10.4 mph /  16.7 km/h 65 % 0.00 in /  0 mm
15:35 58.7 °F /  14.8 °C 47.8 °F /  8.8 °C 29.97 in /  1014.8 hPa WNW 3.3 mph /  5.3 km/h 6.9 mph /  11.1 km/h 67 % 0.00 in /  0 mm
15:40 58.7 °F /  14.8 °C 47.4 °F /  8.6 °C 29.98 in /  1015.1 hPa North 3.1 mph /  5 km/h 8.1 mph /  13 km/h 66 % 0.00 in /  0 mm
15:45 58.6 °F /  14.8 °C 47.3 °F /  8.5 °C 29.98 in /  1015.1 hPa NNE 5.4 mph /  8.7 km/h 9.2 mph /  14.8 km/h 66 % 0.00 in /  0 mm
15:50 58.6 °F /  14.8 °C 47.7 °F /  8.7 °C 29.97 in /  1014.8 hPa North 2.4 mph /  3.9 km/h 11.5 mph /  18.5 km/h 67 % 0.00 in /  0 mm
15:55 58.6 °F /  14.8 °C 47.3 °F /  8.5 °C 29.98 in /  1015.1 hPa NNW 3.7 mph /  6 km/h 6.9 mph /  11.1 km/h 66 % 0.00 in /  0 mm
16:00 58.4 °F /  14.7 °C 47.1 °F /  8.4 °C 29.98 in /  1015.1 hPa North 3.8 mph /  6.1 km/h 9.2 mph /  14.8 km/h 66 % 0.00 in /  0 mm
16:05 58.3 °F /  14.6 °C 47.0 °F /  8.3 °C 29.98 in /  1015.1 hPa NNW 6.7 mph /  10.8 km/h 10.4 mph /  16.7 km/h 66 % 0.00 in /  0 mm
16:10 58.1 °F /  14.5 °C 46.8 °F /  8.2 °C 29.98 in /  1015.1 hPa North 3.6 mph /  5.8 km/h 8.1 mph /  13 km/h 66 % 0.00 in /  0 mm
16:15 57.8 °F /  14.3 °C 46.5 °F /  8.1 °C 29.98 in /  1015.1 hPa NW 3.6 mph /  5.8 km/h 8.1 mph /  13 km/h 66 % 0.00 in /  0 mm
16:20 57.6 °F /  14.2 °C 46.7 °F /  8.2 °C 29.97 in /  1014.8 hPa NNW 2.9 mph /  4.7 km/h 8.0 mph /  12.9 km/h 67 % 0.00 in /  0 mm
16:25 57.3 °F /  14.1 °C 46.4 °F /  8 °C 29.98 in /  1015.1 hPa North 7.9 mph /  12.7 km/h 11.5 mph /  18.5 km/h 67 % 0.00 in /  0 mm
16:30 57.1 °F /  13.9 °C 46.2 °F /  7.9 °C 29.98 in /  1015.1 hPa NNE 6.2 mph /  10 km/h 11.5 mph /  18.5 km/h 67 % 0.00 in /  0 mm
16:35 56.9 °F /  13.8 °C 46.4 °F /  8 °C 29.98 in /  1015.1 hPa NNE 5.1 mph /  8.2 km/h 11.5 mph /  18.5 km/h 68 % 0.00 in /  0 mm
16:40 56.9 °F /  13.8 °C 46.8 °F /  8.2 °C 29.99 in /  1015.5 hPa North 1.0 mph /  1.6 km/h 6.9 mph /  11.1 km/h 69 % 0.00 in /  0 mm
16:45 56.8 °F /  13.8 °C 46.7 °F /  8.2 °C 29.99 in /  1015.5 hPa NW 3.0 mph /  4.8 km/h 8.1 mph /  13 km/h 69 % 0.00 in /  0 mm
16:50 56.6 °F /  13.7 °C 46.2 °F /  7.9 °C 29.99 in /  1015.5 hPa North 4.7 mph /  7.6 km/h 11.5 mph /  18.5 km/h 68 % 0.00 in /  0 mm
16:55 56.5 °F /  13.6 °C 46.1 °F /  7.8 °C 30.00 in /  1015.8 hPa North 3.1 mph /  5 km/h 10.4 mph /  16.7 km/h 68 % 0.00 in /  0 mm
17:00 56.4 °F /  13.6 °C 45.6 °F /  7.6 °C 30.00 in /  1015.8 hPa North 6.5 mph /  10.5 km/h 11.5 mph /  18.5 km/h 67 % 0.00 in /  0 mm
17:05 56.3 °F /  13.5 °C 45.5 °F /  7.5 °C 30.00 in /  1015.8 hPa NNW 4.5 mph /  7.2 km/h 6.9 mph /  11.1 km/h 67 % 0.00 in /  0 mm
17:10 56.2 °F /  13.4 °C 45.8 °F /  7.7 °C 30.00 in /  1015.8 hPa NNW 4.3 mph /  6.9 km/h 8.1 mph /  13 km/h 68 % 0.00 in /  0 mm
17:15 56.0 °F /  13.3 °C 45.2 °F /  7.3 °C 30.01 in /  1016.1 hPa WNW 4.4 mph /  7.1 km/h 11.5 mph /  18.5 km/h 67 % 0.00 in /  0 mm
17:20 55.9 °F /  13.3 °C 45.1 °F /  7.3 °C 30.01 in /  1016.1 hPa NNE 7.0 mph /  11.3 km/h 11.5 mph /  18.5 km/h 67 % 0.00 in /  0 mm
17:26 55.8 °F /  13.2 °C 45.8 °F /  7.7 °C 30.01 in /  1016.1 hPa NE 4.0 mph /  6.4 km/h 9.2 mph /  14.8 km/h 69 % 0.00 in /  0 mm
17:31 55.7 °F /  13.2 °C 45.3 °F /  7.4 °C 30.02 in /  1016.5 hPa NE 5.2 mph /  8.4 km/h 6.0 mph /  9.7 km/h 68 % 0.00 in /  0 mm
17:36 55.7 °F /  13.2 °C 45.7 °F /  7.6 °C 30.02 in /  1016.5 hPa NNE 3.2 mph /  5.1 km/h 6.9 mph /  11.1 km/h 69 % 0.00 in /  0 mm
17:41 55.5 °F /  13.1 °C 45.1 °F /  7.3 °C 30.02 in /  1016.5 hPa North 2.0 mph /  3.2 km/h 9.0 mph /  14.5 km/h 68 % 0.00 in /  0 mm
17:46 55.5 °F /  13.1 °C 45.5 °F /  7.5 °C 30.02 in /  1016.5 hPa North 5.0 mph /  8 km/h 12.0 mph /  19.3 km/h 69 % 0.00 in /  0 mm
17:51 55.4 °F /  13 °C 45.4 °F /  7.4 °C 30.02 in /  1016.5 hPa NNW 3.0 mph /  4.8 km/h 12.0 mph /  19.3 km/h 69 % 0.00 in /  0 mm
17:56 55.3 °F /  12.9 °C 45.3 °F /  7.4 °C 30.02 in /  1016.5 hPa North 5.0 mph /  8 km/h 13.0 mph /  20.9 km/h 69 % 0.00 in /  0 mm
18:01 55.2 °F /  12.9 °C 46.0 °F /  7.8 °C 30.03 in /  1016.8 hPa NW 3.2 mph /  5.1 km/h 10.4 mph /  16.7 km/h 71 % 0.00 in /  0 mm
18:06 55.1 °F /  12.8 °C 45.5 °F /  7.5 °C 30.03 in /  1016.8 hPa NNE 4.4 mph /  7.1 km/h 8.1 mph /  13 km/h 70 % 0.00 in /  0 mm
18:11 55.1 °F /  12.8 °C 45.1 °F /  7.3 °C 30.02 in /  1016.5 hPa NNE 4.1 mph /  6.6 km/h 10.4 mph /  16.7 km/h 69 % 0.00 in /  0 mm
18:16 55.0 °F /  12.8 °C 45.4 °F /  7.4 °C 30.03 in /  1016.8 hPa NE 2.5 mph /  4 km/h 9.2 mph /  14.8 km/h 70 % 0.00 in /  0 mm
18:21 54.8 °F /  12.7 °C 45.2 °F /  7.3 °C 30.03 in /  1016.8 hPa North 6.5 mph /  10.5 km/h 9.2 mph /  14.8 km/h 70 % 0.00 in /  0 mm
18:26 54.8 °F /  12.7 °C 45.2 °F /  7.3 °C 30.03 in /  1016.8 hPa NE 7.4 mph /  11.9 km/h 11.5 mph /  18.5 km/h 70 % 0.00 in /  0 mm
18:31 54.6 °F /  12.6 °C 45.4 °F /  7.4 °C 30.03 in /  1016.8 hPa NE 7.4 mph /  11.9 km/h 12.0 mph /  19.3 km/h 71 % 0.00 in /  0 mm
18:36 54.5 °F /  12.5 °C 44.5 °F /  6.9 °C 30.04 in /  1017.2 hPa NNW 7.9 mph /  12.7 km/h 12.0 mph /  19.3 km/h 69 % 0.00 in /  0 mm
18:41 54.5 °F /  12.5 °C 44.9 °F /  7.2 °C 30.05 in /  1017.5 hPa NNE 4.2 mph /  6.8 km/h 10.4 mph /  16.7 km/h 70 % 0.00 in /  0 mm
18:46 54.4 °F /  12.4 °C 44.8 °F /  7.1 °C 30.05 in /  1017.5 hPa NNW 7.1 mph /  11.4 km/h 11.0 mph /  17.7 km/h 70 % 0.00 in /  0 mm
18:51 54.4 °F /  12.4 °C 44.4 °F /  6.9 °C 30.04 in /  1017.2 hPa North 7.8 mph /  12.6 km/h 11.5 mph /  18.5 km/h 69 % 0.00 in /  0 mm
18:56 54.3 °F /  12.4 °C 44.7 °F /  7.1 °C 30.05 in /  1017.5 hPa NNW 6.4 mph /  10.3 km/h 10.0 mph /  16.1 km/h 70 % 0.00 in /  0 mm
19:01 54.2 °F /  12.3 °C 44.6 °F /  7 °C 30.05 in /  1017.5 hPa NW 9.1 mph /  14.6 km/h 12.0 mph /  19.3 km/h 70 % 0.00 in /  0 mm
19:06 54.1 °F /  12.3 °C 44.2 °F /  6.8 °C 30.05 in /  1017.5 hPa NNE 3.1 mph /  5 km/h 8.1 mph /  13 km/h 69 % 0.00 in /  0 mm
19:11 54.1 °F /  12.3 °C 44.2 °F /  6.8 °C 30.06 in /  1017.8 hPa North 5.8 mph /  9.3 km/h 9.2 mph /  14.8 km/h 69 % 0.00 in /  0 mm
19:16 54.1 °F /  12.3 °C 44.5 °F /  6.9 °C 30.06 in /  1017.8 hPa NE 5.5 mph /  8.9 km/h 10.4 mph /  16.7 km/h 70 % 0.00 in /  0 mm
19:21 54.0 °F /  12.2 °C 44.4 °F /  6.9 °C 30.06 in /  1017.8 hPa North 7.0 mph /  11.3 km/h 10.4 mph /  16.7 km/h 70 % 0.00 in /  0 mm
19:26 53.9 °F /  12.2 °C 44.0 °F /  6.7 °C 30.06 in /  1017.8 hPa NE 3.8 mph /  6.1 km/h 9.2 mph /  14.8 km/h 69 % 0.00 in /  0 mm
19:31 53.8 °F /  12.1 °C 43.9 °F /  6.6 °C 30.07 in /  1018.2 hPa North 7.5 mph /  12.1 km/h 12.7 mph /  20.4 km/h 69 % 0.00 in /  0 mm
19:37 53.8 °F /  12.1 °C 43.9 °F /  6.6 °C 30.07 in /  1018.2 hPa North 7.7 mph /  12.4 km/h 11.5 mph /  18.5 km/h 69 % 0.00 in /  0 mm
19:42 53.8 °F /  12.1 °C 43.9 °F /  6.6 °C 30.07 in /  1018.2 hPa NNW 7.6 mph /  12.2 km/h 11.5 mph /  18.5 km/h 69 % 0.00 in /  0 mm
19:47 53.7 °F /  12.1 °C 43.4 °F /  6.3 °C 30.07 in /  1018.2 hPa NW 3.2 mph /  5.1 km/h 10.4 mph /  16.7 km/h 68 % 0.00 in /  0 mm
19:52 53.7 °F /  12.1 °C 43.8 °F /  6.6 °C 30.07 in /  1018.2 hPa North 7.1 mph /  11.4 km/h 11.5 mph /  18.5 km/h 69 % 0.00 in /  0 mm
19:57 53.7 °F /  12.1 °C 43.4 °F /  6.3 °C 30.08 in /  1018.5 hPa NE 6.5 mph /  10.5 km/h 11.5 mph /  18.5 km/h 68 % 0.00 in /  0 mm
20:02 53.6 °F /  12 °C 43.3 °F /  6.3 °C 30.07 in /  1018.2 hPa NNE 6.0 mph /  9.7 km/h 10.4 mph /  16.7 km/h 68 % 0.00 in /  0 mm
20:07 53.5 °F /  11.9 °C 42.8 °F /  6 °C 30.07 in /  1018.2 hPa North 6.2 mph /  10 km/h 10.4 mph /  16.7 km/h 67 % 0.00 in /  0 mm
20:12 53.5 °F /  11.9 °C 43.2 °F /  6.2 °C 30.07 in /  1018.2 hPa NNW 4.4 mph /  7.1 km/h 8.1 mph /  13 km/h 68 % 0.00 in /  0 mm
20:17 53.4 °F /  11.9 °C 42.7 °F /  5.9 °C 30.08 in /  1018.5 hPa North 6.9 mph /  11.1 km/h 11.5 mph /  18.5 km/h 67 % 0.00 in /  0 mm
20:22 53.3 °F /  11.8 °C 42.2 °F /  5.7 °C 30.08 in /  1018.5 hPa NE 6.9 mph /  11.1 km/h 12.0 mph /  19.3 km/h 66 % 0.00 in /  0 mm
20:27 53.2 °F /  11.8 °C 41.7 °F /  5.4 °C 30.08 in /  1018.5 hPa NNW 9.2 mph /  14.8 km/h 12.7 mph /  20.4 km/h 65 % 0.00 in /  0 mm
20:32 53.2 °F /  11.8 °C 42.1 °F /  5.6 °C 30.09 in /  1018.8 hPa NW 4.4 mph /  7.1 km/h 9.2 mph /  14.8 km/h 66 % 0.00 in /  0 mm
20:37 53.1 °F /  11.7 °C 42.0 °F /  5.6 °C 30.08 in /  1018.5 hPa NNW 5.2 mph /  8.4 km/h 9.2 mph /  14.8 km/h 66 % 0.00 in /  0 mm
20:42 53.0 °F /  11.7 °C 41.5 °F /  5.3 °C 30.10 in /  1019.2 hPa NNW 8.9 mph /  14.3 km/h 15.0 mph /  24.1 km/h 65 % 0.00 in /  0 mm
20:47 52.9 °F /  11.6 °C 41.8 °F /  5.4 °C 30.09 in /  1018.8 hPa NNW 5.9 mph /  9.5 km/h 11.0 mph /  17.7 km/h 66 % 0.00 in /  0 mm
20:52 52.8 °F /  11.6 °C 41.7 °F /  5.4 °C 30.10 in /  1019.2 hPa NNE 4.7 mph /  7.6 km/h 12.7 mph /  20.4 km/h 66 % 0.00 in /  0 mm
20:57 52.7 °F /  11.5 °C 41.3 °F /  5.2 °C 30.10 in /  1019.2 hPa North 6.9 mph /  11.1 km/h 13.0 mph /  20.9 km/h 65 % 0.00 in /  0 mm
21:02 52.6 °F /  11.4 °C 41.6 °F /  5.3 °C 30.10 in /  1019.2 hPa NNW 4.9 mph /  7.9 km/h 11.0 mph /  17.7 km/h 66 % 0.00 in /  0 mm
21:08 52.6 °F /  11.4 °C 41.6 °F /  5.3 °C 30.10 in /  1019.2 hPa NNE 9.2 mph /  14.8 km/h 12.7 mph /  20.4 km/h 66 % 0.00 in /  0 mm
21:13 52.4 °F /  11.3 °C 41.4 °F /  5.2 °C 30.10 in /  1019.2 hPa NNE 6.4 mph /  10.3 km/h 10.4 mph /  16.7 km/h 66 % 0.00 in /  0 mm
21:18 52.3 °F /  11.3 °C 41.3 °F /  5.2 °C 30.11 in /  1019.5 hPa NNW 9.1 mph /  14.6 km/h 18.0 mph /  29 km/h 66 % 0.00 in /  0 mm
21:23 52.3 °F /  11.3 °C 41.7 °F /  5.4 °C 30.11 in /  1019.5 hPa NNW 6.4 mph /  10.3 km/h 9.2 mph /  14.8 km/h 67 % 0.00 in /  0 mm
21:28 52.1 °F /  11.2 °C 41.1 °F /  5.1 °C 30.11 in /  1019.5 hPa North 7.6 mph /  12.2 km/h 12.7 mph /  20.4 km/h 66 % 0.00 in /  0 mm
21:33 52.1 °F /  11.2 °C 41.9 °F /  5.5 °C 30.11 in /  1019.5 hPa NNE 5.9 mph /  9.5 km/h 10.4 mph /  16.7 km/h 68 % 0.00 in /  0 mm
21:38 52.0 °F /  11.1 °C 41.8 °F /  5.4 °C 30.12 in /  1019.9 hPa NNE 7.6 mph /  12.2 km/h 12.7 mph /  20.4 km/h 68 % 0.00 in /  0 mm
21:43 51.9 °F /  11.1 °C 41.3 °F /  5.2 °C 30.12 in /  1019.9 hPa North 7.6 mph /  12.2 km/h 10.4 mph /  16.7 km/h 67 % 0.00 in /  0 mm
21:48 51.9 °F /  11.1 °C 40.9 °F /  4.9 °C 30.13 in /  1020.2 hPa NNW 10.3 mph /  16.6 km/h 15.0 mph /  24.1 km/h 66 % 0.00 in /  0 mm
21:53 51.8 °F /  11 °C 41.2 °F /  5.1 °C 30.12 in /  1019.9 hPa NNE 6.7 mph /  10.8 km/h 11.5 mph /  18.5 km/h 67 % 0.00 in /  0 mm
21:59 51.8 °F /  11 °C 41.6 °F /  5.3 °C 30.12 in /  1019.9 hPa North 7.2 mph /  11.6 km/h 17.3 mph /  27.8 km/h 68 % 0.00 in /  0 mm
22:04 51.7 °F /  10.9 °C 41.5 °F /  5.3 °C 30.13 in /  1020.2 hPa North 7.2 mph /  11.6 km/h 12.7 mph /  20.4 km/h 68 % 0.00 in /  0 mm
22:09 51.7 °F /  10.9 °C 41.9 °F /  5.5 °C 30.13 in /  1020.2 hPa NNW 6.2 mph /  10 km/h 15.0 mph /  24.1 km/h 69 % 0.00 in /  0 mm
22:14 51.7 °F /  10.9 °C 41.9 °F /  5.5 °C 30.13 in /  1020.2 hPa North 6.2 mph /  10 km/h 11.5 mph /  18.5 km/h 69 % 0.00 in /  0 mm
22:19 51.6 °F /  10.9 °C 42.1 °F /  5.6 °C 30.13 in /  1020.2 hPa North 5.1 mph /  8.2 km/h 8.1 mph /  13 km/h 70 % 0.00 in /  0 mm
22:24 51.5 °F /  10.8 °C 42.0 °F /  5.6 °C 30.13 in /  1020.2 hPa NNW 5.7 mph /  9.2 km/h 9.0 mph /  14.5 km/h 70 % 0.00 in /  0 mm
22:29 51.4 °F /  10.8 °C 41.6 °F /  5.3 °C 30.13 in /  1020.2 hPa WNW 4.4 mph /  7.1 km/h 8.1 mph /  13 km/h 69 % 0.00 in /  0 mm
22:34 51.3 °F /  10.7 °C 41.5 °F /  5.3 °C 30.13 in /  1020.2 hPa NNW 4.3 mph /  6.9 km/h 8.1 mph /  13 km/h 69 % 0.00 in /  0 mm
22:39 51.2 °F /  10.7 °C 41.0 °F /  5 °C 30.13 in /  1020.2 hPa North 8.1 mph /  13 km/h 11.5 mph /  18.5 km/h 68 % 0.00 in /  0 mm
22:44 51.0 °F /  10.6 °C 41.2 °F /  5.1 °C 30.13 in /  1020.2 hPa North 9.8 mph /  15.8 km/h 13.8 mph /  22.2 km/h 69 % 0.00 in /  0 mm
22:49 50.9 °F /  10.5 °C 41.1 °F /  5.1 °C 30.13 in /  1020.2 hPa NW 4.3 mph /  6.9 km/h 10.4 mph /  16.7 km/h 69 % 0.00 in /  0 mm
22:54 50.8 °F /  10.4 °C 41.0 °F /  5 °C 30.13 in /  1020.2 hPa North 8.5 mph /  13.7 km/h 11.5 mph /  18.5 km/h 69 % 0.00 in /  0 mm
22:59 50.7 °F /  10.4 °C 41.3 °F /  5.2 °C 30.13 in /  1020.2 hPa NNE 4.5 mph /  7.2 km/h 6.9 mph /  11.1 km/h 70 % 0.00 in /  0 mm
23:04 50.6 °F /  10.3 °C 40.8 °F /  4.9 °C 30.13 in /  1020.2 hPa NW 5.3 mph /  8.5 km/h 12.7 mph /  20.4 km/h 69 % 0.00 in /  0 mm
23:09 50.5 °F /  10.3 °C 40.7 °F /  4.8 °C 30.13 in /  1020.2 hPa NNE 6.5 mph /  10.5 km/h 14.0 mph /  22.5 km/h 69 % 0.00 in /  0 mm
23:16 50.3 °F /  10.2 °C 39.8 °F /  4.3 °C 30.14 in /  1020.5 hPa NE 8.4 mph /  13.5 km/h 15.0 mph /  24.1 km/h 67 % 0.00 in /  0 mm
23:21 50.2 °F /  10.1 °C 39.7 °F /  4.3 °C 30.14 in /  1020.5 hPa North 5.3 mph /  8.5 km/h 13.8 mph /  22.2 km/h 67 % 0.00 in /  0 mm
23:22 50.2 °F /  10.1 °C 39.7 °F /  4.3 °C 30.14 in /  1020.5 hPa NNE 5.5 mph /  8.9 km/h 13.8 mph /  22.2 km/h 67 % 0.00 in /  0 mm
23:24 50.1 °F /  10.1 °C 39.9 °F /  4.4 °C 29.98 in /  1015.1 hPa North 7.9 mph /  12.7 km/h 16.1 mph /  25.9 km/h 68 % 0.00 in /  0 mm
23:27 50.1 °F /  10.1 °C 39.6 °F /  4.2 °C 30.14 in /  1020.5 hPa NNE 5.9 mph /  9.5 km/h 11.5 mph /  18.5 km/h 67 % 0.00 in /  0 mm
23:29 50.0 °F /  10 °C 39.8 °F /  4.3 °C 30.14 in /  1020.5 hPa NNE 6.8 mph /  10.9 km/h 12.0 mph /  19.3 km/h 68 % 0.00 in /  0 mm
23:34 50.0 °F /  10 °C 40.2 °F /  4.6 °C 30.14 in /  1020.5 hPa NW 6.3 mph /  10.1 km/h 11.5 mph /  18.5 km/h 69 % 0.00 in /  0 mm
23:39 49.9 °F /  9.9 °C 39.4 °F /  4.1 °C 30.14 in /  1020.5 hPa NNE 7.7 mph /  12.4 km/h 12.7 mph /  20.4 km/h 67 % 0.00 in /  0 mm
23:44 49.8 °F /  9.9 °C 40.0 °F /  4.4 °C 30.14 in /  1020.5 hPa North 5.8 mph /  9.3 km/h 10.4 mph /  16.7 km/h 69 % 0.00 in /  0 mm
23:49 49.7 °F /  9.8 °C 40.3 °F /  4.6 °C 30.14 in /  1020.5 hPa North 6.8 mph /  10.9 km/h 10.4 mph /  16.7 km/h 70 % 0.00 in /  0 mm
23:54 49.6 °F /  9.8 °C 40.2 °F /  4.6 °C 30.14 in /  1020.5 hPa North 4.4 mph /  7.1 km/h 11.5 mph /  18.5 km/h 70 % 0.00 in /  0 mm
23:59 49.5 °F /  9.7 °C 40.1 °F /  4.5 °C 30.15 in /  1020.9 hPa NNW 4.3 mph /  6.9 km/h 8.1 mph /  13 km/h 70 % 0.00 in /  0 mm
Crab Meadow Weather
Compliments of Weather Underground - 3 mb

Script developed by  Jim McMurry - jmcmurry@mwt.net Adapted for the template by  Wim van der Kuil - Leuven-Template.eu

Weather Terms: Winter Weather Advisory - Hazardous winter weather conditions are occurring, imminent or likely. Conditions will cause a significant inconvenience and if caution is not exercised, will result in a potential threat to life and/or property. The generic term, winter weather advisory, is used for a combination of two or more of the following events; snow, freezing rain or drizzle, sleet, blowing snow.